sensor_id;sensor_type;location;lat;lon;timestamp;P1;durP1;ratioP1;P2;durP2;ratioP2
19778;SDS011;10049;59.306;18.090;2022-07-18T00:00:17;0.45;;;0.20;;
19778;SDS011;10049;59.306;18.090;2022-07-18T00:02:47;0.20;;;0.20;;
19778;SDS011;10049;59.306;18.090;2022-07-18T00:05:14;0.30;;;0.30;;
19778;SDS011;10049;59.306;18.090;2022-07-18T00:07:42;0.25;;;0.25;;
19778;SDS011;10049;59.306;18.090;2022-07-18T00:10:09;0.30;;;0.30;;
19778;SDS011;10049;59.306;18.090;2022-07-18T00:12:37;0.38;;;0.38;;
19778;SDS011;10049;59.306;18.090;2022-07-18T00:15:06;0.30;;;0.30;;
19778;SDS011;10049;59.306;18.090;2022-07-18T00:17:35;0.20;;;0.20;;
19778;SDS011;10049;59.306;18.090;2022-07-18T00:20:02;0.20;;;0.20;;
19778;SDS011;10049;59.306;18.090;2022-07-18T00:22:30;0.40;;;0.20;;
19778;SDS011;10049;59.306;18.090;2022-07-18T00:24:57;0.30;;;0.30;;
19778;SDS011;10049;59.306;18.090;2022-07-18T00:27:25;5.95;;;0.40;;
19778;SDS011;10049;59.306;18.090;2022-07-18T00:29:52;0.75;;;0.30;;
19778;SDS011;10049;59.306;18.090;2022-07-18T00:32:21;1.92;;;0.55;;
19778;SDS011;10049;59.306;18.090;2022-07-18T00:34:49;0.35;;;0.30;;
19778;SDS011;10049;59.306;18.090;2022-07-18T00:37:16;1.45;;;0.40;;
19778;SDS011;10049;59.306;18.090;2022-07-18T00:39:43;0.20;;;0.20;;
19778;SDS011;10049;59.306;18.090;2022-07-18T00:42:11;0.43;;;0.30;;
19778;SDS011;10049;59.306;18.090;2022-07-18T00:44:38;0.57;;;0.30;;
19778;SDS011;10049;59.306;18.090;2022-07-18T00:47:06;0.30;;;0.30;;
19778;SDS011;10049;59.306;18.090;2022-07-18T00:49:34;0.80;;;0.30;;
19778;SDS011;10049;59.306;18.090;2022-07-18T00:52:02;0.40;;;0.30;;
19778;SDS011;10049;59.306;18.090;2022-07-18T00:54:29;0.28;;;0.20;;
19778;SDS011;10049;59.306;18.090;2022-07-18T00:56:57;0.32;;;0.30;;
19778;SDS011;10049;59.306;18.090;2022-07-18T00:59:25;1.95;;;0.40;;
19778;SDS011;10049;59.306;18.090;2022-07-18T01:02:13;0.25;;;0.22;;
19778;SDS011;10049;59.306;18.090;2022-07-18T01:04:41;1.00;;;0.30;;
19778;SDS011;10049;59.306;18.090;2022-07-18T01:07:08;0.88;;;0.40;;
19778;SDS011;10049;59.306;18.090;2022-07-18T01:09:36;0.68;;;0.28;;
19778;SDS011;10049;59.306;18.090;2022-07-18T01:12:04;0.45;;;0.30;;
19778;SDS011;10049;59.306;18.090;2022-07-18T01:14:32;0.95;;;0.20;;
19778;SDS011;10049;59.306;18.090;2022-07-18T01:16:59;0.47;;;0.30;;
19778;SDS011;10049;59.306;18.090;2022-07-18T01:19:27;2.85;;;0.30;;
19778;SDS011;10049;59.306;18.090;2022-07-18T01:21:55;0.30;;;0.30;;
19778;SDS011;10049;59.306;18.090;2022-07-18T01:24:23;0.45;;;0.20;;
19778;SDS011;10049;59.306;18.090;2022-07-18T01:26:50;2.13;;;0.40;;
19778;SDS011;10049;59.306;18.090;2022-07-18T01:29:17;0.30;;;0.30;;
19778;SDS011;10049;59.306;18.090;2022-07-18T01:31:45;0.70;;;0.30;;
19778;SDS011;10049;59.306;18.090;2022-07-18T01:34:12;0.20;;;0.20;;
19778;SDS011;10049;59.306;18.090;2022-07-18T01:36:40;0.20;;;0.20;;
19778;SDS011;10049;59.306;18.090;2022-07-18T01:39:09;0.25;;;0.25;;
19778;SDS011;10049;59.306;18.090;2022-07-18T01:41:36;0.57;;;0.30;;
19778;SDS011;10049;59.306;18.090;2022-07-18T01:44:05;2.08;;;0.32;;
19778;SDS011;10049;59.306;18.090;2022-07-18T01:46:33;0.52;;;0.32;;
19778;SDS011;10049;59.306;18.090;2022-07-18T01:49:00;0.35;;;0.30;;
19778;SDS011;10049;59.306;18.090;2022-07-18T01:51:27;0.30;;;0.30;;
19778;SDS011;10049;59.306;18.090;2022-07-18T01:53:56;0.77;;;0.60;;
19778;SDS011;10049;59.306;18.090;2022-07-18T01:56:28;0.80;;;0.40;;
19778;SDS011;10049;59.306;18.090;2022-07-18T01:58:55;0.32;;;0.32;;
19778;SDS011;10049;59.306;18.090;2022-07-18T02:01:23;0.25;;;0.25;;
19778;SDS011;10049;59.306;18.090;2022-07-18T02:03:50;0.30;;;0.30;;
19778;SDS011;10049;59.306;18.090;2022-07-18T02:06:17;0.30;;;0.30;;
19778;SDS011;10049;59.306;18.090;2022-07-18T02:08:44;0.30;;;0.30;;
19778;SDS011;10049;59.306;18.090;2022-07-18T02:11:12;0.22;;;0.22;;
19778;SDS011;10049;59.306;18.090;2022-07-18T02:13:41;0.35;;;0.35;;
19778;SDS011;10049;59.306;18.090;2022-07-18T02:16:08;2.40;;;0.30;;
19778;SDS011;10049;59.306;18.090;2022-07-18T02:18:35;1.00;;;0.47;;
19778;SDS011;10049;59.306;18.090;2022-07-18T02:21:03;0.45;;;0.40;;
19778;SDS011;10049;59.306;18.090;2022-07-18T02:23:30;1.05;;;0.50;;
19778;SDS011;10049;59.306;18.090;2022-07-18T02:25:58;1.25;;;0.40;;
19778;SDS011;10049;59.306;18.090;2022-07-18T02:28:25;3.70;;;0.40;;
19778;SDS011;10049;59.306;18.090;2022-07-18T02:30:54;0.52;;;0.40;;
19778;SDS011;10049;59.306;18.090;2022-07-18T02:33:22;0.40;;;0.30;;
19778;SDS011;10049;59.306;18.090;2022-07-18T02:35:49;0.40;;;0.40;;
19778;SDS011;10049;59.306;18.090;2022-07-18T02:38:17;1.25;;;0.30;;
19778;SDS011;10049;59.306;18.090;2022-07-18T02:40:44;0.40;;;0.40;;
19778;SDS011;10049;59.306;18.090;2022-07-18T02:43:12;1.33;;;0.30;;
19778;SDS011;10049;59.306;18.090;2022-07-18T02:45:39;1.63;;;0.38;;
19778;SDS011;10049;59.306;18.090;2022-07-18T02:48:09;0.40;;;0.40;;
19778;SDS011;10049;59.306;18.090;2022-07-18T02:50:38;1.02;;;0.30;;
19778;SDS011;10049;59.306;18.090;2022-07-18T02:53:05;2.35;;;0.40;;
19778;SDS011;10049;59.306;18.090;2022-07-18T02:55:33;0.52;;;0.30;;
19778;SDS011;10049;59.306;18.090;2022-07-18T02:58:00;1.65;;;0.30;;
19778;SDS011;10049;59.306;18.090;2022-07-18T03:00:28;0.40;;;0.30;;
19778;SDS011;10049;59.306;18.090;2022-07-18T03:02:55;1.33;;;0.40;;
19778;SDS011;10049;59.306;18.090;2022-07-18T03:05:24;0.52;;;0.40;;
19778;SDS011;10049;59.306;18.090;2022-07-18T03:07:51;1.23;;;0.50;;
19778;SDS011;10049;59.306;18.090;2022-07-18T03:10:19;2.05;;;0.40;;
19778;SDS011;10049;59.306;18.090;2022-07-18T03:12:46;0.43;;;0.32;;
19778;SDS011;10049;59.306;18.090;2022-07-18T03:15:14;0.40;;;0.40;;
19778;SDS011;10049;59.306;18.090;2022-07-18T03:17:41;0.30;;;0.30;;
19778;SDS011;10049;59.306;18.090;2022-07-18T03:20:09;0.60;;;0.40;;
19778;SDS011;10049;59.306;18.090;2022-07-18T03:22:38;0.30;;;0.30;;
19778;SDS011;10049;59.306;18.090;2022-07-18T03:25:05;0.30;;;0.30;;
19778;SDS011;10049;59.306;18.090;2022-07-18T03:27:33;0.60;;;0.40;;
19778;SDS011;10049;59.306;18.090;2022-07-18T03:30:00;0.82;;;0.30;;
19778;SDS011;10049;59.306;18.090;2022-07-18T03:32:27;1.10;;;0.40;;
19778;SDS011;10049;59.306;18.090;2022-07-18T03:34:55;0.55;;;0.40;;
19778;SDS011;10049;59.306;18.090;2022-07-18T03:37:22;0.30;;;0.30;;
19778;SDS011;10049;59.306;18.090;2022-07-18T03:39:51;1.15;;;0.40;;
19778;SDS011;10049;59.306;18.090;2022-07-18T03:42:18;0.35;;;0.22;;
19778;SDS011;10049;59.306;18.090;2022-07-18T03:44:46;2.03;;;0.32;;
19778;SDS011;10049;59.306;18.090;2022-07-18T03:47:13;1.63;;;0.38;;
19778;SDS011;10049;59.306;18.090;2022-07-18T03:49:40;0.55;;;0.20;;
19778;SDS011;10049;59.306;18.090;2022-07-18T03:52:08;0.43;;;0.30;;
19778;SDS011;10049;59.306;18.090;2022-07-18T03:54:35;0.68;;;0.30;;
19778;SDS011;10049;59.306;18.090;2022-07-18T03:57:05;0.82;;;0.40;;
19778;SDS011;10049;59.306;18.090;2022-07-18T03:59:32;1.33;;;0.40;;
19778;SDS011;10049;59.306;18.090;2022-07-18T04:02:00;3.13;;;0.40;;
19778;SDS011;10049;59.306;18.090;2022-07-18T04:04:28;0.73;;;0.38;;
19778;SDS011;10049;59.306;18.090;2022-07-18T04:06:55;1.17;;;0.30;;
19778;SDS011;10049;59.306;18.090;2022-07-18T04:09:24;0.30;;;0.30;;
19778;SDS011;10049;59.306;18.090;2022-07-18T04:11:52;1.17;;;0.30;;
19778;SDS011;10049;59.306;18.090;2022-07-18T04:14:20;0.30;;;0.30;;
19778;SDS011;10049;59.306;18.090;2022-07-18T04:16:48;3.42;;;0.40;;
19778;SDS011;10049;59.306;18.090;2022-07-18T04:19:16;0.68;;;0.40;;
19778;SDS011;10049;59.306;18.090;2022-07-18T04:21:43;1.27;;;0.40;;
19778;SDS011;10049;59.306;18.090;2022-07-18T04:24:11;0.75;;;0.38;;
19778;SDS011;10049;59.306;18.090;2022-07-18T04:26:38;1.65;;;0.47;;
19778;SDS011;10049;59.306;18.090;2022-07-18T04:29:06;1.40;;;0.40;;
19778;SDS011;10049;59.306;18.090;2022-07-18T04:31:35;0.73;;;0.40;;
19778;SDS011;10049;59.306;18.090;2022-07-18T04:34:02;1.17;;;0.30;;
19778;SDS011;10049;59.306;18.090;2022-07-18T04:36:29;1.67;;;0.40;;
19778;SDS011;10049;59.306;18.090;2022-07-18T04:38:57;0.45;;;0.40;;
19778;SDS011;10049;59.306;18.090;2022-07-18T04:41:24;0.43;;;0.40;;
19778;SDS011;10049;59.306;18.090;2022-07-18T04:43:52;6.53;;;0.70;;
19778;SDS011;10049;59.306;18.090;2022-07-18T04:46:19;2.03;;;0.40;;
19778;SDS011;10049;59.306;18.090;2022-07-18T04:48:48;0.85;;;0.50;;
19778;SDS011;10049;59.306;18.090;2022-07-18T04:51:15;6.60;;;0.40;;
19778;SDS011;10049;59.306;18.090;2022-07-18T04:53:43;3.25;;;0.70;;
19778;SDS011;10049;59.306;18.090;2022-07-18T04:56:10;1.33;;;0.60;;
19778;SDS011;10049;59.306;18.090;2022-07-18T04:58:37;3.03;;;0.60;;
19778;SDS011;10049;59.306;18.090;2022-07-18T05:01:05;1.08;;;0.50;;
19778;SDS011;10049;59.306;18.090;2022-07-18T05:03:32;1.52;;;0.63;;
19778;SDS011;10049;59.306;18.090;2022-07-18T05:06:01;1.65;;;0.50;;
19778;SDS011;10049;59.306;18.090;2022-07-18T05:08:28;1.27;;;0.60;;
19778;SDS011;10049;59.306;18.090;2022-07-18T05:10:55;1.85;;;0.77;;
19778;SDS011;10049;59.306;18.090;2022-07-18T05:13:23;1.55;;;0.60;;
19778;SDS011;10049;59.306;18.090;2022-07-18T05:15:50;3.95;;;0.65;;
19778;SDS011;10049;59.306;18.090;2022-07-18T05:18:17;3.15;;;0.70;;
19778;SDS011;10049;59.306;18.090;2022-07-18T05:20:45;1.52;;;0.70;;
19778;SDS011;10049;59.306;18.090;2022-07-18T05:23:14;3.92;;;0.70;;
19778;SDS011;10049;59.306;18.090;2022-07-18T05:25:42;0.95;;;0.70;;
19778;SDS011;10049;59.306;18.090;2022-07-18T05:28:09;2.08;;;0.80;;
19778;SDS011;10049;59.306;18.090;2022-07-18T05:30:37;1.75;;;0.80;;
19778;SDS011;10049;59.306;18.090;2022-07-18T05:33:05;1.17;;;0.70;;
19778;SDS011;10049;59.306;18.090;2022-07-18T05:35:32;2.03;;;0.68;;
19778;SDS011;10049;59.306;18.090;2022-07-18T05:38:00;2.78;;;0.77;;
19778;SDS011;10049;59.306;18.090;2022-07-18T05:40:29;1.38;;;0.65;;
19778;SDS011;10049;59.306;18.090;2022-07-18T05:42:56;2.10;;;0.60;;
19778;SDS011;10049;59.306;18.090;2022-07-18T05:45:25;1.20;;;0.52;;
19778;SDS011;10049;59.306;18.090;2022-07-18T05:47:52;1.67;;;0.80;;
19778;SDS011;10049;59.306;18.090;2022-07-18T05:50:20;1.58;;;0.80;;
19778;SDS011;10049;59.306;18.090;2022-07-18T05:52:48;1.33;;;0.70;;
19778;SDS011;10049;59.306;18.090;2022-07-18T05:55:16;2.78;;;0.95;;
19778;SDS011;10049;59.306;18.090;2022-07-18T05:57:45;1.38;;;0.70;;
19778;SDS011;10049;59.306;18.090;2022-07-18T06:00:13;1.67;;;0.70;;
19778;SDS011;10049;59.306;18.090;2022-07-18T06:02:40;2.47;;;0.80;;
19778;SDS011;10049;59.306;18.090;2022-07-18T06:05:08;1.50;;;0.70;;
19778;SDS011;10049;59.306;18.090;2022-07-18T06:07:36;1.67;;;0.93;;
19778;SDS011;10049;59.306;18.090;2022-07-18T06:10:04;2.38;;;1.00;;
19778;SDS011;10049;59.306;18.090;2022-07-18T06:12:32;2.22;;;1.00;;
19778;SDS011;10049;59.306;18.090;2022-07-18T06:15:02;1.88;;;0.80;;
19778;SDS011;10049;59.306;18.090;2022-07-18T06:17:29;2.33;;;0.98;;
19778;SDS011;10049;59.306;18.090;2022-07-18T06:19:56;2.28;;;1.00;;
19778;SDS011;10049;59.306;18.090;2022-07-18T06:22:24;2.08;;;1.05;;
19778;SDS011;10049;59.306;18.090;2022-07-18T06:24:52;1.63;;;0.77;;
19778;SDS011;10049;59.306;18.090;2022-07-18T06:27:19;1.23;;;0.73;;
19778;SDS011;10049;59.306;18.090;2022-07-18T06:29:47;2.75;;;0.90;;
19778;SDS011;10049;59.306;18.090;2022-07-18T06:32:16;5.13;;;1.00;;
19778;SDS011;10049;59.306;18.090;2022-07-18T06:34:44;1.40;;;0.90;;
19778;SDS011;10049;59.306;18.090;2022-07-18T06:37:11;2.08;;;1.10;;
19778;SDS011;10049;59.306;18.090;2022-07-18T06:39:39;3.17;;;0.93;;
19778;SDS011;10049;59.306;18.090;2022-07-18T06:42:06;1.83;;;0.85;;
19778;SDS011;10049;59.306;18.090;2022-07-18T06:44:34;2.58;;;1.00;;
19778;SDS011;10049;59.306;18.090;2022-07-18T06:47:01;1.75;;;1.05;;
19778;SDS011;10049;59.306;18.090;2022-07-18T06:49:30;2.63;;;0.95;;
19778;SDS011;10049;59.306;18.090;2022-07-18T06:51:58;3.53;;;0.90;;
19778;SDS011;10049;59.306;18.090;2022-07-18T06:54:25;3.13;;;1.15;;
19778;SDS011;10049;59.306;18.090;2022-07-18T06:56:54;2.13;;;1.10;;
19778;SDS011;10049;59.306;18.090;2022-07-18T06:59:23;3.90;;;1.00;;
19778;SDS011;10049;59.306;18.090;2022-07-18T07:01:51;2.58;;;0.90;;
19778;SDS011;10049;59.306;18.090;2022-07-18T07:04:18;2.65;;;1.02;;
19778;SDS011;10049;59.306;18.090;2022-07-18T07:06:47;5.43;;;1.20;;
19778;SDS011;10049;59.306;18.090;2022-07-18T07:09:15;2.10;;;0.90;;
19778;SDS011;10049;59.306;18.090;2022-07-18T07:11:42;2.65;;;0.95;;
19778;SDS011;10049;59.306;18.090;2022-07-18T07:14:09;2.70;;;1.02;;
19778;SDS011;10049;59.306;18.090;2022-07-18T07:16:37;1.17;;;0.70;;
19778;SDS011;10049;59.306;18.090;2022-07-18T07:19:05;2.60;;;1.00;;
19778;SDS011;10049;59.306;18.090;2022-07-18T07:21:32;5.45;;;1.02;;
19778;SDS011;10049;59.306;18.090;2022-07-18T07:24:00;4.13;;;0.90;;
19778;SDS011;10049;59.306;18.090;2022-07-18T07:26:28;3.42;;;1.13;;
19778;SDS011;10049;59.306;18.090;2022-07-18T07:28:55;5.65;;;0.98;;
19778;SDS011;10049;59.306;18.090;2022-07-18T07:31:23;2.40;;;1.13;;
19778;SDS011;10049;59.306;18.090;2022-07-18T07:33:50;3.05;;;1.02;;
19778;SDS011;10049;59.306;18.090;2022-07-18T07:36:18;1.55;;;1.00;;
19778;SDS011;10049;59.306;18.090;2022-07-18T07:38:46;2.30;;;0.95;;
19778;SDS011;10049;59.306;18.090;2022-07-18T07:41:15;2.72;;;1.02;;
19778;SDS011;10049;59.306;18.090;2022-07-18T07:43:43;2.58;;;0.90;;
19778;SDS011;10049;59.306;18.090;2022-07-18T07:46:10;2.17;;;1.10;;
19778;SDS011;10049;59.306;18.090;2022-07-18T07:48:38;2.45;;;1.00;;
19778;SDS011;10049;59.306;18.090;2022-07-18T07:51:05;3.17;;;1.10;;
19778;SDS011;10049;59.306;18.090;2022-07-18T07:53:33;7.30;;;0.90;;
19778;SDS011;10049;59.306;18.090;2022-07-18T07:56:00;2.25;;;1.10;;
19778;SDS011;10049;59.306;18.090;2022-07-18T07:58:30;4.63;;;1.30;;
19778;SDS011;10049;59.306;18.090;2022-07-18T08:00:58;2.30;;;0.85;;
19778;SDS011;10049;59.306;18.090;2022-07-18T08:03:28;3.38;;;1.13;;
19778;SDS011;10049;59.306;18.090;2022-07-18T08:05:56;2.42;;;1.00;;
19778;SDS011;10049;59.306;18.090;2022-07-18T08:08:23;2.28;;;1.00;;
19778;SDS011;10049;59.306;18.090;2022-07-18T08:10:51;3.40;;;1.20;;
19778;SDS011;10049;59.306;18.090;2022-07-18T08:13:19;4.15;;;1.20;;
19778;SDS011;10049;59.306;18.090;2022-07-18T08:15:48;2.33;;;0.90;;
19778;SDS011;10049;59.306;18.090;2022-07-18T08:18:15;2.35;;;0.95;;
19778;SDS011;10049;59.306;18.090;2022-07-18T08:20:42;1.90;;;0.98;;
19778;SDS011;10049;59.306;18.090;2022-07-18T08:23:10;2.15;;;1.05;;
19778;SDS011;10049;59.306;18.090;2022-07-18T08:25:40;1.40;;;0.93;;
19778;SDS011;10049;59.306;18.090;2022-07-18T08:28:08;1.98;;;1.00;;
19778;SDS011;10049;59.306;18.090;2022-07-18T08:30:36;2.55;;;1.17;;
19778;SDS011;10049;59.306;18.090;2022-07-18T08:33:05;2.25;;;1.00;;
19778;SDS011;10049;59.306;18.090;2022-07-18T08:35:34;3.40;;;1.02;;
19778;SDS011;10049;59.306;18.090;2022-07-18T08:38:02;3.78;;;0.90;;
19778;SDS011;10049;59.306;18.090;2022-07-18T08:40:30;1.85;;;0.90;;
19778;SDS011;10049;59.306;18.090;2022-07-18T08:42:57;1.60;;;0.93;;
19778;SDS011;10049;59.306;18.090;2022-07-18T08:45:25;4.10;;;1.00;;
19778;SDS011;10049;59.306;18.090;2022-07-18T08:47:52;1.70;;;0.70;;
19778;SDS011;10049;59.306;18.090;2022-07-18T08:50:21;2.75;;;0.88;;
19778;SDS011;10049;59.306;18.090;2022-07-18T08:52:51;2.95;;;1.00;;
19778;SDS011;10049;59.306;18.090;2022-07-18T08:55:18;1.67;;;0.90;;
19778;SDS011;10049;59.306;18.090;2022-07-18T08:57:46;1.65;;;0.60;;
19778;SDS011;10049;59.306;18.090;2022-07-18T09:00:13;1.25;;;0.90;;
19778;SDS011;10049;59.306;18.090;2022-07-18T09:02:41;3.05;;;0.82;;
19778;SDS011;10049;59.306;18.090;2022-07-18T09:05:16;0.90;;;0.50;;
19778;SDS011;10049;59.306;18.090;2022-07-18T09:07:45;1.75;;;0.80;;
19778;SDS011;10049;59.306;18.090;2022-07-18T09:10:13;1.55;;;0.88;;
19778;SDS011;10049;59.306;18.090;2022-07-18T09:12:41;0.90;;;0.63;;
19778;SDS011;10049;59.306;18.090;2022-07-18T09:15:22;2.22;;;1.13;;
19778;SDS011;10049;59.306;18.090;2022-07-18T09:17:49;1.80;;;0.63;;
19778;SDS011;10049;59.306;18.090;2022-07-18T09:20:18;0.82;;;0.70;;
19778;SDS011;10049;59.306;18.090;2022-07-18T09:22:47;2.45;;;0.70;;
19778;SDS011;10049;59.306;18.090;2022-07-18T09:25:15;1.45;;;0.85;;
19778;SDS011;10049;59.306;18.090;2022-07-18T09:27:45;1.38;;;0.82;;
19778;SDS011;10049;59.306;18.090;2022-07-18T09:30:18;3.17;;;0.90;;
19778;SDS011;10049;59.306;18.090;2022-07-18T09:33:07;1.52;;;0.70;;
19778;SDS011;10049;59.306;18.090;2022-07-18T09:35:35;2.65;;;0.90;;
19778;SDS011;10049;59.306;18.090;2022-07-18T09:38:05;1.27;;;0.80;;
19778;SDS011;10049;59.306;18.090;2022-07-18T09:40:37;2.08;;;0.82;;
19778;SDS011;10049;59.306;18.090;2022-07-18T09:43:04;3.13;;;1.02;;
19778;SDS011;10049;59.306;18.090;2022-07-18T09:45:32;2.10;;;1.02;;
19778;SDS011;10049;59.306;18.090;2022-07-18T09:48:00;1.70;;;0.80;;
19778;SDS011;10049;59.306;18.090;2022-07-18T09:50:30;3.60;;;0.82;;
19778;SDS011;10049;59.306;18.090;2022-07-18T09:55:52;1.55;;;0.80;;
19778;SDS011;10049;59.306;18.090;2022-07-18T09:58:22;4.03;;;1.00;;
19778;SDS011;10049;59.306;18.090;2022-07-18T10:00:50;1.73;;;0.60;;
19778;SDS011;10049;59.306;18.090;2022-07-18T10:03:17;1.42;;;0.82;;
19778;SDS011;10049;59.306;18.090;2022-07-18T10:05:45;1.15;;;0.68;;
19778;SDS011;10049;59.306;18.090;2022-07-18T10:08:14;1.35;;;0.70;;
19778;SDS011;10049;59.306;18.090;2022-07-18T10:10:42;0.80;;;0.63;;
19778;SDS011;10049;59.306;18.090;2022-07-18T10:13:11;1.83;;;0.82;;
19778;SDS011;10049;59.306;18.090;2022-07-18T10:15:39;1.40;;;0.77;;
19778;SDS011;10049;59.306;18.090;2022-07-18T10:18:11;2.25;;;0.80;;
19778;SDS011;10049;59.306;18.090;2022-07-18T10:20:41;1.80;;;0.70;;
19778;SDS011;10049;59.306;18.090;2022-07-18T10:23:14;1.08;;;0.73;;
19778;SDS011;10049;59.306;18.090;2022-07-18T10:25:43;1.75;;;0.80;;
19778;SDS011;10049;59.306;18.090;2022-07-18T10:28:13;3.63;;;0.90;;
19778;SDS011;10049;59.306;18.090;2022-07-18T10:30:42;1.38;;;0.80;;
19778;SDS011;10049;59.306;18.090;2022-07-18T10:36:00;1.33;;;0.50;;
19778;SDS011;10049;59.306;18.090;2022-07-18T10:38:27;2.03;;;0.80;;
19778;SDS011;10049;59.306;18.090;2022-07-18T10:41:05;0.70;;;0.60;;
19778;SDS011;10049;59.306;18.090;2022-07-18T10:43:36;0.63;;;0.50;;
19778;SDS011;10049;59.306;18.090;2022-07-18T10:46:05;1.38;;;0.60;;
19778;SDS011;10049;59.306;18.090;2022-07-18T10:48:53;1.27;;;0.68;;
19778;SDS011;10049;59.306;18.090;2022-07-18T10:51:29;1.27;;;0.55;;
19778;SDS011;10049;59.306;18.090;2022-07-18T10:54:00;2.17;;;0.70;;
19778;SDS011;10049;59.306;18.090;2022-07-18T10:59:18;1.70;;;0.85;;
19778;SDS011;10049;59.306;18.090;2022-07-18T11:01:47;0.82;;;0.68;;
19778;SDS011;10049;59.306;18.090;2022-07-18T11:04:22;1.00;;;0.60;;
19778;SDS011;10049;59.306;18.090;2022-07-18T11:06:53;1.45;;;0.70;;
19778;SDS011;10049;59.306;18.090;2022-07-18T11:09:28;1.38;;;0.70;;
19778;SDS011;10049;59.306;18.090;2022-07-18T11:15:12;2.97;;;0.70;;
19778;SDS011;10049;59.306;18.090;2022-07-18T11:17:59;3.72;;;0.80;;
19778;SDS011;10049;59.306;18.090;2022-07-18T11:20:28;0.82;;;0.60;;
19778;SDS011;10049;59.306;18.090;2022-07-18T11:22:56;1.90;;;0.50;;
19778;SDS011;10049;59.306;18.090;2022-07-18T11:25:27;0.75;;;0.60;;
19778;SDS011;10049;59.306;18.090;2022-07-18T11:27:55;2.15;;;0.60;;
19778;SDS011;10049;59.306;18.090;2022-07-18T11:30:24;1.83;;;0.70;;
19778;SDS011;10049;59.306;18.090;2022-07-18T11:32:52;1.55;;;0.60;;
19778;SDS011;10049;59.306;18.090;2022-07-18T11:35:23;0.95;;;0.68;;
19778;SDS011;10049;59.306;18.090;2022-07-18T11:37:52;0.80;;;0.70;;
19778;SDS011;10049;59.306;18.090;2022-07-18T11:40:21;2.85;;;0.90;;
19778;SDS011;10049;59.306;18.090;2022-07-18T11:42:48;4.63;;;0.70;;
19778;SDS011;10049;59.306;18.090;2022-07-18T11:45:16;0.75;;;0.60;;
19778;SDS011;10049;59.306;18.090;2022-07-18T11:47:57;0.65;;;0.65;;
19778;SDS011;10049;59.306;18.090;2022-07-18T11:50:33;0.57;;;0.50;;
19778;SDS011;10049;59.306;18.090;2022-07-18T11:53:05;0.50;;;0.50;;
19778;SDS011;10049;59.306;18.090;2022-07-18T11:55:33;1.23;;;0.70;;
19778;SDS011;10049;59.306;18.090;2022-07-18T11:58:07;0.70;;;0.68;;
19778;SDS011;10049;59.306;18.090;2022-07-18T12:00:34;0.63;;;0.60;;
19778;SDS011;10049;59.306;18.090;2022-07-18T12:03:08;3.13;;;0.93;;
19778;SDS011;10049;59.306;18.090;2022-07-18T12:05:36;1.20;;;0.70;;
19778;SDS011;10049;59.306;18.090;2022-07-18T12:13:39;2.83;;;1.05;;
19778;SDS011;10049;59.306;18.090;2022-07-18T12:16:06;1.38;;;0.65;;
19778;SDS011;10049;59.306;18.090;2022-07-18T12:18:37;1.20;;;0.88;;
19778;SDS011;10049;59.306;18.090;2022-07-18T12:21:14;2.40;;;1.00;;
19778;SDS011;10049;59.306;18.090;2022-07-18T12:23:41;3.08;;;1.00;;
19778;SDS011;10049;59.306;18.090;2022-07-18T12:26:08;2.08;;;0.80;;
19778;SDS011;10049;59.306;18.090;2022-07-18T12:28:36;6.10;;;0.77;;
19778;SDS011;10049;59.306;18.090;2022-07-18T12:31:03;1.58;;;0.95;;
19778;SDS011;10049;59.306;18.090;2022-07-18T12:33:31;1.30;;;0.75;;
19778;SDS011;10049;59.306;18.090;2022-07-18T12:36:00;1.85;;;0.80;;
19778;SDS011;10049;59.306;18.090;2022-07-18T12:38:27;0.82;;;0.60;;
19778;SDS011;10049;59.306;18.090;2022-07-18T12:40:55;1.10;;;0.77;;
19778;SDS011;10049;59.306;18.090;2022-07-18T12:43:27;0.93;;;0.60;;
19778;SDS011;10049;59.306;18.090;2022-07-18T12:45:55;1.45;;;0.70;;
19778;SDS011;10049;59.306;18.090;2022-07-18T12:48:22;1.40;;;0.85;;
19778;SDS011;10049;59.306;18.090;2022-07-18T12:50:56;0.93;;;0.70;;
19778;SDS011;10049;59.306;18.090;2022-07-18T12:53:27;1.77;;;0.80;;
19778;SDS011;10049;59.306;18.090;2022-07-18T12:55:54;1.05;;;0.80;;
19778;SDS011;10049;59.306;18.090;2022-07-18T12:58:22;1.70;;;0.73;;
19778;SDS011;10049;59.306;18.090;2022-07-18T13:00:50;1.10;;;0.60;;
19778;SDS011;10049;59.306;18.090;2022-07-18T13:03:17;3.25;;;0.90;;
19778;SDS011;10049;59.306;18.090;2022-07-18T13:05:44;0.85;;;0.60;;
19778;SDS011;10049;59.306;18.090;2022-07-18T13:08:12;1.08;;;0.73;;
19778;SDS011;10049;59.306;18.090;2022-07-18T13:10:41;1.40;;;0.73;;
19778;SDS011;10049;59.306;18.090;2022-07-18T13:13:08;0.70;;;0.70;;
19778;SDS011;10049;59.306;18.090;2022-07-18T13:15:36;1.42;;;0.88;;
19778;SDS011;10049;59.306;18.090;2022-07-18T13:18:04;3.40;;;1.10;;
19778;SDS011;10049;59.306;18.090;2022-07-18T13:20:31;0.50;;;0.50;;
19778;SDS011;10049;59.306;18.090;2022-07-18T13:22:59;1.52;;;0.80;;
19778;SDS011;10049;59.306;18.090;2022-07-18T13:25:29;2.15;;;0.70;;
19778;SDS011;10049;59.306;18.090;2022-07-18T13:28:00;1.13;;;0.60;;
19778;SDS011;10049;59.306;18.090;2022-07-18T13:30:27;0.90;;;0.60;;
19778;SDS011;10049;59.306;18.090;2022-07-18T13:32:55;0.60;;;0.60;;
19778;SDS011;10049;59.306;18.090;2022-07-18T13:35:22;1.45;;;0.70;;
19778;SDS011;10049;59.306;18.090;2022-07-18T13:37:50;1.13;;;0.70;;
19778;SDS011;10049;59.306;18.090;2022-07-18T13:40:17;0.95;;;0.60;;
19778;SDS011;10049;59.306;18.090;2022-07-18T13:42:45;2.00;;;0.77;;
19778;SDS011;10049;59.306;18.090;2022-07-18T13:45:14;1.13;;;0.75;;
19778;SDS011;10049;59.306;18.090;2022-07-18T13:47:43;0.85;;;0.75;;
19778;SDS011;10049;59.306;18.090;2022-07-18T13:50:11;1.25;;;0.70;;
19778;SDS011;10049;59.306;18.090;2022-07-18T13:52:39;1.08;;;0.70;;
19778;SDS011;10049;59.306;18.090;2022-07-18T13:55:08;1.80;;;0.65;;
19778;SDS011;10049;59.306;18.090;2022-07-18T13:57:36;0.80;;;0.60;;
19778;SDS011;10049;59.306;18.090;2022-07-18T14:00:04;1.15;;;0.70;;
19778;SDS011;10049;59.306;18.090;2022-07-18T14:02:34;0.80;;;0.70;;
19778;SDS011;10049;59.306;18.090;2022-07-18T14:05:01;0.60;;;0.60;;
19778;SDS011;10049;59.306;18.090;2022-07-18T14:07:30;1.00;;;0.70;;
19778;SDS011;10049;59.306;18.090;2022-07-18T14:09:58;4.93;;;0.90;;
19778;SDS011;10049;59.306;18.090;2022-07-18T14:12:25;2.22;;;1.10;;
19778;SDS011;10049;59.306;18.090;2022-07-18T14:14:53;0.95;;;0.70;;
19778;SDS011;10049;59.306;18.090;2022-07-18T14:17:21;1.38;;;0.90;;
19778;SDS011;10049;59.306;18.090;2022-07-18T14:19:50;2.78;;;0.65;;
19778;SDS011;10049;59.306;18.090;2022-07-18T14:22:17;1.02;;;0.70;;
19778;SDS011;10049;59.306;18.090;2022-07-18T14:24:46;1.48;;;0.70;;
19778;SDS011;10049;59.306;18.090;2022-07-18T14:27:13;1.15;;;0.70;;
19778;SDS011;10049;59.306;18.090;2022-07-18T14:29:42;3.38;;;0.63;;
19778;SDS011;10049;59.306;18.090;2022-07-18T14:32:09;1.67;;;0.93;;
19778;SDS011;10049;59.306;18.090;2022-07-18T14:34:37;0.63;;;0.50;;
19778;SDS011;10049;59.306;18.090;2022-07-18T14:37:08;1.50;;;0.60;;
19778;SDS011;10049;59.306;18.090;2022-07-18T14:39:35;0.70;;;0.70;;
19778;SDS011;10049;59.306;18.090;2022-07-18T14:42:03;1.48;;;0.50;;
19778;SDS011;10049;59.306;18.090;2022-07-18T14:44:31;0.73;;;0.52;;
19778;SDS011;10049;59.306;18.090;2022-07-18T14:46:59;0.70;;;0.60;;
19778;SDS011;10049;59.306;18.090;2022-07-18T14:49:27;0.50;;;0.50;;
19778;SDS011;10049;59.306;18.090;2022-07-18T14:51:54;1.20;;;0.50;;
19778;SDS011;10049;59.306;18.090;2022-07-18T14:54:23;0.47;;;0.47;;
19778;SDS011;10049;59.306;18.090;2022-07-18T14:56:51;0.40;;;0.40;;